createdAt,value
2022-11-28T00:01:43.735Z,19.02
2022-11-28T00:04:10.920Z,19.00
2022-11-28T00:06:39.451Z,19.00
2022-11-28T00:09:06.479Z,18.99
2022-11-28T00:11:33.104Z,19.00
2022-11-28T00:13:59.890Z,18.98
2022-11-28T00:16:26.425Z,18.98
2022-11-28T00:18:54.481Z,18.97
2022-11-28T00:21:21.868Z,18.98
2022-11-28T00:23:48.940Z,18.97
2022-11-28T00:26:22.439Z,18.97
2022-11-28T00:28:50.509Z,18.95
2022-11-28T00:31:20.579Z,18.94
2022-11-28T00:33:47.472Z,18.93
2022-11-28T00:36:14.402Z,18.93
2022-11-28T00:38:41.762Z,18.92
2022-11-28T00:41:11.189Z,18.93
2022-11-28T00:43:38.003Z,18.91
2022-11-28T00:46:04.763Z,18.91
2022-11-28T00:48:32.920Z,18.90
2022-11-28T00:51:10.236Z,18.91
2022-11-28T00:53:37.186Z,18.89
2022-11-28T00:56:05.623Z,18.89
2022-11-28T00:58:33.376Z,18.88
2022-11-28T01:01:00.309Z,18.88
2022-11-28T01:03:26.921Z,18.86
2022-11-28T01:05:53.401Z,18.87
2022-11-28T01:08:19.903Z,18.86
2022-11-28T01:10:46.427Z,18.86
2022-11-28T01:13:12.971Z,18.85
2022-11-28T01:15:42.946Z,18.83
2022-11-28T01:18:09.845Z,18.85
2022-11-28T01:20:36.696Z,18.83
2022-11-28T01:23:03.812Z,18.82
2022-11-28T01:25:30.511Z,18.83
2022-11-28T01:27:57.064Z,18.83
2022-11-28T01:30:23.587Z,18.81
2022-11-28T01:32:50.250Z,18.80
2022-11-28T01:35:16.800Z,18.80
2022-11-28T01:37:43.357Z,18.81
2022-11-28T01:40:11.778Z,18.80
2022-11-28T01:42:38.194Z,18.79
2022-11-28T01:45:22.993Z,18.78
2022-11-28T01:47:51.557Z,18.78
2022-11-28T01:50:18.844Z,18.79
2022-11-28T01:52:48.146Z,18.77
2022-11-28T01:55:17.285Z,18.77
2022-11-28T01:57:43.953Z,18.77
2022-11-28T02:00:14.276Z,18.75
2022-11-28T02:02:50.478Z,18.74
2022-11-28T02:05:19.683Z,18.74
2022-11-28T02:07:47.505Z,18.74
2022-11-28T02:10:23.753Z,18.73
2022-11-28T02:13:28.522Z,18.74
2022-11-28T02:16:01.056Z,18.73
2022-11-28T02:18:50.716Z,18.73
2022-11-28T02:21:29.356Z,18.72
2022-11-28T02:24:29.979Z,18.71
2022-11-28T02:27:02.179Z,18.70
2022-11-28T02:30:06.552Z,18.70
2022-11-28T02:32:46.098Z,18.70
2022-11-28T02:35:41.523Z,18.69
2022-11-28T02:38:45.563Z,18.68
2022-11-28T02:41:24.295Z,18.68
2022-11-28T02:44:05.828Z,18.68
2022-11-28T02:46:41.589Z,18.67
2022-11-28T02:49:12.823Z,18.66
2022-11-28T02:51:46.316Z,18.65
2022-11-28T02:54:15.520Z,18.66
2022-11-28T02:56:50.575Z,18.66
2022-11-28T02:59:46.165Z,18.65
2022-11-28T03:02:30.324Z,18.64
2022-11-28T03:05:08.212Z,18.65
2022-11-28T03:07:58.255Z,18.64
2022-11-28T03:10:30.653Z,18.63
2022-11-28T03:13:19.132Z,18.61
2022-11-28T03:16:22.842Z,18.62
2022-11-28T03:18:58.232Z,18.62
2022-11-28T03:21:36.913Z,18.61
2022-11-28T03:24:15.577Z,18.57
2022-11-28T03:26:51.507Z,18.61
2022-11-28T03:29:44.271Z,18.59
2022-11-28T03:32:14.792Z,18.59
2022-11-28T03:34:46.361Z,18.59
2022-11-28T03:37:20.480Z,18.59
2022-11-28T03:39:50.533Z,18.57
2022-11-28T03:42:21.236Z,18.58
2022-11-28T03:45:00.379Z,18.57
2022-11-28T03:47:31.155Z,18.57
2022-11-28T03:50:02.751Z,18.56
2022-11-28T03:52:32.820Z,18.56
2022-11-28T03:55:03.745Z,18.54
2022-11-28T03:57:41.801Z,18.55
2022-11-28T04:00:10.741Z,18.54
2022-11-28T04:02:53.014Z,18.54
2022-11-28T04:05:42.160Z,18.54
2022-11-28T04:08:18.310Z,18.53
2022-11-28T04:10:59.699Z,18.53
2022-11-28T04:13:27.342Z,18.54
2022-11-28T04:15:59.901Z,18.53
2022-11-28T04:19:01.378Z,18.53
2022-11-28T04:21:35.169Z,18.51
2022-11-28T04:24:06.016Z,18.51
2022-11-28T04:26:35.748Z,18.51
2022-11-28T04:29:05.104Z,18.51
2022-11-28T04:31:32.475Z,18.49
2022-11-28T04:34:02.827Z,18.51
2022-11-28T04:36:30.692Z,18.49
2022-11-28T04:38:57.552Z,18.47
2022-11-28T04:41:33.707Z,18.47
2022-11-28T04:44:05.077Z,18.47
2022-11-28T04:46:37.728Z,18.47
2022-11-28T04:49:04.203Z,18.47
2022-11-28T04:51:44.413Z,18.47
2022-11-28T04:54:23.054Z,18.46
2022-11-28T04:56:59.146Z,18.46
2022-11-28T04:59:26.857Z,18.46
2022-11-28T05:01:54.115Z,18.44
2022-11-28T05:04:20.695Z,18.46
2022-11-28T05:06:47.875Z,18.43
2022-11-28T05:09:14.497Z,18.45
2022-11-28T05:11:41.052Z,18.43
2022-11-28T05:14:07.885Z,18.45
2022-11-28T05:16:35.139Z,18.45
2022-11-28T05:19:01.740Z,18.43
2022-11-28T05:21:28.303Z,18.43
2022-11-28T05:23:54.823Z,18.43
2022-11-28T05:26:21.501Z,18.45
2022-11-28T05:28:50.094Z,18.45
2022-11-28T05:31:18.424Z,18.46
2022-11-28T05:33:45.057Z,18.46
2022-11-28T05:36:13.781Z,18.48
2022-11-28T05:38:41.546Z,18.49
2022-11-28T05:41:08.721Z,18.52
2022-11-28T05:43:35.476Z,18.53
2022-11-28T05:46:05.684Z,18.56
2022-11-28T05:48:32.406Z,18.58
2022-11-28T05:50:59.033Z,18.59
2022-11-28T05:53:25.861Z,18.62
2022-11-28T05:55:52.362Z,18.63
2022-11-28T05:58:18.892Z,18.65
2022-11-28T06:00:45.469Z,18.67
2022-11-28T06:03:12.061Z,18.66
2022-11-28T06:05:43.206Z,18.71
2022-11-28T06:08:12.251Z,18.72
2022-11-28T06:10:39.004Z,18.74
2022-11-28T06:13:05.756Z,18.76
2022-11-28T06:15:37.556Z,18.78
2022-11-28T06:18:05.098Z,18.80
2022-11-28T06:20:31.651Z,18.81
2022-11-28T06:22:58.208Z,18.82
2022-11-28T06:25:24.897Z,18.84
2022-11-28T06:27:51.440Z,18.86
2022-11-28T06:30:17.996Z,18.87
2022-11-28T06:32:44.571Z,18.89
2022-11-28T06:35:11.165Z,18.90
2022-11-28T06:37:37.888Z,18.92
2022-11-28T06:40:05.360Z,18.92
2022-11-28T06:42:31.905Z,18.94
2022-11-28T06:44:58.392Z,18.96
2022-11-28T06:47:24.864Z,18.97
2022-11-28T06:49:51.416Z,18.99
2022-11-28T06:52:17.939Z,19.01
2022-11-28T06:54:44.632Z,19.01
2022-11-28T06:57:11.277Z,19.02
2022-11-28T06:59:37.832Z,19.03
2022-11-28T07:02:07.784Z,19.05
2022-11-28T07:04:34.918Z,19.06
2022-11-28T07:07:01.788Z,19.07
2022-11-28T07:09:28.534Z,19.08
2022-11-28T07:11:55.372Z,19.08
2022-11-28T07:14:21.984Z,19.10
2022-11-28T07:16:49.200Z,19.11
2022-11-28T07:19:16.495Z,19.10
2022-11-28T07:21:43.027Z,19.13
2022-11-28T07:24:09.584Z,19.13
2022-11-28T07:26:38.045Z,19.12
2022-11-28T07:29:06.883Z,19.14
2022-11-28T07:31:33.886Z,19.14
2022-11-28T07:34:03.283Z,19.14
2022-11-28T07:36:30.462Z,19.14
2022-11-28T07:39:01.389Z,19.14
2022-11-28T07:41:28.378Z,19.15
2022-11-28T07:43:57.048Z,19.14
2022-11-28T07:46:24.596Z,19.17
2022-11-28T07:48:51.464Z,19.17
2022-11-28T07:51:23.782Z,19.18
2022-11-28T07:53:50.752Z,19.17
2022-11-28T07:56:22.359Z,19.18
2022-11-28T07:58:49.550Z,19.17
2022-11-28T08:01:18.720Z,19.18
2022-11-28T08:03:45.740Z,19.18
2022-11-28T08:06:13.076Z,19.18
2022-11-28T08:08:39.744Z,19.19
2022-11-28T08:11:07.929Z,19.18
2022-11-28T08:13:35.890Z,19.18
2022-11-28T08:16:11.175Z,19.17
2022-11-28T08:18:37.736Z,19.17
2022-11-28T08:21:05.848Z,19.18
2022-11-28T08:23:35.800Z,19.18
2022-11-28T08:26:03.486Z,19.18
2022-11-28T08:28:30.119Z,19.17
2022-11-28T08:30:57.040Z,19.17
2022-11-28T08:33:24.642Z,19.18
2022-11-28T08:35:54.262Z,19.16
2022-11-28T08:38:20.824Z,19.17
2022-11-28T08:40:47.527Z,19.17
2022-11-28T08:43:14.543Z,19.16
2022-11-28T08:45:41.119Z,19.12
2022-11-28T08:48:07.731Z,19.19
2022-11-28T08:50:34.268Z,19.17
2022-11-28T08:53:07.696Z,19.18
2022-11-28T08:55:39.153Z,19.16
2022-11-28T08:58:08.663Z,19.17
2022-11-28T09:00:35.299Z,19.18
2022-11-28T09:03:01.823Z,19.17
2022-11-28T09:05:29.376Z,19.18
2022-11-28T09:07:56.145Z,19.18
2022-11-28T09:10:23.562Z,19.17
2022-11-28T09:12:50.384Z,19.15
2022-11-28T09:15:18.947Z,19.14
2022-11-28T09:17:46.304Z,19.17
2022-11-28T09:20:13.140Z,19.18
2022-11-28T09:22:40.652Z,19.18
2022-11-28T09:25:07.876Z,19.19
2022-11-28T09:27:34.476Z,19.19
2022-11-28T09:30:01.005Z,19.19
2022-11-28T09:32:27.506Z,19.20
2022-11-28T09:34:53.992Z,19.19
2022-11-28T09:37:20.563Z,19.19
2022-11-28T09:40:11.602Z,19.18
2022-11-28T09:42:39.571Z,19.19
2022-11-28T09:45:11.025Z,19.17
2022-11-28T09:47:38.248Z,19.18
2022-11-28T09:50:10.765Z,19.17
2022-11-28T09:52:46.522Z,19.17
2022-11-28T09:55:18.760Z,19.16
2022-11-28T09:57:50.543Z,19.17
2022-11-28T10:00:32.383Z,19.16
2022-11-28T10:03:07.486Z,19.16
2022-11-28T10:06:07.447Z,19.17
2022-11-28T10:08:39.465Z,19.11
2022-11-28T10:11:25.651Z,19.14
2022-11-28T10:14:08.268Z,19.14
2022-11-28T10:17:20.188Z,19.14
2022-11-28T10:19:54.840Z,19.14
2022-11-28T10:22:29.773Z,19.14
2022-11-28T10:24:58.115Z,19.14
2022-11-28T10:27:33.162Z,19.13
2022-11-28T10:30:08.341Z,19.14
2022-11-28T10:32:38.397Z,19.13
2022-11-28T10:35:28.494Z,19.13
2022-11-28T10:37:55.787Z,19.13
2022-11-28T10:40:31.259Z,19.13
2022-11-28T10:43:17.201Z,19.11
2022-11-28T10:45:51.466Z,19.11
2022-11-28T10:48:40.661Z,19.11
2022-11-28T10:51:16.322Z,19.11
2022-11-28T10:53:51.807Z,19.11
2022-11-28T10:56:27.725Z,19.11
2022-11-28T10:58:58.795Z,19.10
2022-11-28T11:01:29.836Z,19.09
2022-11-28T11:03:56.403Z,19.09
2022-11-28T11:06:32.668Z,19.08
2022-11-28T11:09:09.448Z,19.08
2022-11-28T11:11:41.991Z,19.07
2022-11-28T11:14:11.279Z,19.07
2022-11-28T11:16:46.775Z,19.06
2022-11-28T11:19:31.514Z,19.05
2022-11-28T11:22:10.797Z,19.04
2022-11-28T11:24:37.323Z,19.03
2022-11-28T11:27:17.575Z,19.02
2022-11-28T11:29:45.650Z,19.02
2022-11-28T11:32:23.848Z,19.02
2022-11-28T11:34:50.665Z,19.01
2022-11-28T11:37:37.745Z,19.00
2022-11-28T11:40:19.120Z,19.00
2022-11-28T11:42:52.974Z,18.99
2022-11-28T11:45:31.411Z,18.97
2022-11-28T11:47:58.100Z,18.98
2022-11-28T11:50:27.109Z,18.97
2022-11-28T11:53:12.362Z,18.96
2022-11-28T11:55:56.049Z,18.95
2022-11-28T11:58:26.720Z,18.94
2022-11-28T12:00:55.896Z,18.95
2022-11-28T12:03:56.080Z,18.94
2022-11-28T12:06:29.543Z,18.91
2022-11-28T12:09:09.189Z,18.93
2022-11-28T12:11:45.495Z,18.93
2022-11-28T12:14:34.443Z,18.92
2022-11-28T12:17:40.546Z,18.92
2022-11-28T12:20:26.065Z,18.92
2022-11-28T12:23:04.711Z,18.91
2022-11-28T12:25:51.944Z,18.90
2022-11-28T12:28:21.280Z,18.91
2022-11-28T12:31:03.167Z,18.91
2022-11-28T12:34:19.231Z,18.90
2022-11-28T12:37:09.885Z,18.90
2022-11-28T12:39:47.052Z,18.87
2022-11-28T12:42:19.700Z,18.90
2022-11-28T12:45:14.826Z,18.89
2022-11-28T12:47:53.566Z,18.87
2022-11-28T12:50:38.490Z,18.89
2022-11-28T12:53:40.428Z,18.90
2022-11-28T12:56:28.624Z,18.88
2022-11-28T12:58:59.767Z,18.86
2022-11-28T13:01:51.205Z,18.86
2022-11-28T13:05:01.504Z,18.85
2022-11-28T13:07:41.293Z,18.77
2022-11-28T13:10:31.807Z,18.76
2022-11-28T13:13:02.541Z,18.78
2022-11-28T13:15:54.178Z,18.79
2022-11-28T13:18:29.728Z,18.80
2022-11-28T13:21:06.889Z,18.79
2022-11-28T13:23:48.699Z,18.79
2022-11-28T13:26:28.048Z,18.78
2022-11-28T13:29:21.990Z,18.78
2022-11-28T13:31:48.488Z,18.78
2022-11-28T13:34:16.681Z,18.77
2022-11-28T13:40:01.562Z,18.76
2022-11-28T13:45:35.472Z,18.75
2022-11-28T13:49:12.626Z,18.75
2022-11-28T13:51:33.248Z,18.74
2022-11-28T13:54:21.498Z,18.74
2022-11-28T13:57:10.973Z,18.73
2022-11-28T13:59:38.175Z,18.73
2022-11-28T14:02:21.310Z,18.72
2022-11-28T14:04:48.579Z,18.72
2022-11-28T14:07:27.456Z,18.70
2022-11-28T14:10:12.869Z,18.70
2022-11-28T14:12:52.264Z,18.69
2022-11-28T14:15:31.783Z,18.68
2022-11-28T14:18:39.037Z,18.68
2022-11-28T14:21:05.673Z,18.69
2022-11-28T14:23:45.916Z,18.68
2022-11-28T14:26:43.116Z,18.68
2022-11-28T14:29:31.027Z,18.69
2022-11-28T14:32:29.747Z,18.69
2022-11-28T14:34:48.069Z,18.70
2022-11-28T14:37:21.332Z,18.73
2022-11-28T14:39:49.476Z,18.74
2022-11-28T14:42:36.956Z,18.75
2022-11-28T14:45:22.194Z,18.76
2022-11-28T14:48:24.243Z,18.76
2022-11-28T14:50:59.276Z,18.75
2022-11-28T14:53:34.648Z,18.74
2022-11-28T14:56:16.142Z,18.74
2022-11-28T14:58:50.228Z,18.75
2022-11-28T15:01:44.041Z,18.76
2022-11-28T15:04:33.243Z,18.78
2022-11-28T15:07:00.573Z,18.78
2022-11-28T15:09:35.159Z,18.80
2022-11-28T15:12:26.595Z,18.81
2022-11-28T15:14:57.744Z,18.79
2022-11-28T15:17:30.601Z,18.80
2022-11-28T15:19:59.284Z,18.78
2022-11-28T15:22:41.920Z,18.79
2022-11-28T15:25:29.172Z,18.78
2022-11-28T15:27:57.919Z,18.78
2022-11-28T15:30:28.930Z,18.77
2022-11-28T15:32:58.972Z,18.75
2022-11-28T15:35:26.376Z,18.74
2022-11-28T15:37:57.969Z,18.75
2022-11-28T15:40:35.790Z,18.73
2022-11-28T15:43:08.097Z,18.72
2022-11-28T15:45:42.166Z,18.72
2022-11-28T15:48:26.309Z,18.70
2022-11-28T15:50:53.090Z,18.70
2022-11-28T15:53:21.100Z,18.69
2022-11-28T15:55:47.769Z,18.66
2022-11-28T15:58:23.382Z,18.68
2022-11-28T16:01:01.711Z,18.67
2022-11-28T16:03:31.421Z,18.66
2022-11-28T16:05:58.575Z,18.65
2022-11-28T16:08:29.010Z,18.66
2022-11-28T16:10:56.677Z,18.65
2022-11-28T16:13:24.836Z,18.66
2022-11-28T16:15:54.069Z,18.63
2022-11-28T16:18:20.868Z,18.64
2022-11-28T16:20:47.715Z,18.63
2022-11-28T16:23:20.464Z,18.61
2022-11-28T16:26:05.357Z,18.62
2022-11-28T16:28:37.571Z,18.62
2022-11-28T16:31:21.460Z,18.61
2022-11-28T16:33:49.572Z,18.60
2022-11-28T16:36:16.085Z,18.60
2022-11-28T16:38:43.691Z,18.60
2022-11-28T16:41:25.451Z,18.59
2022-11-28T16:43:58.534Z,18.57
2022-11-28T16:46:28.330Z,18.58
2022-11-28T16:48:59.038Z,18.57
2022-11-28T16:51:25.500Z,18.57
2022-11-28T16:53:58.687Z,18.56
2022-11-28T16:56:31.305Z,18.56
2022-11-28T16:59:01.999Z,18.57
2022-11-28T17:01:29.270Z,18.55
2022-11-28T17:03:57.595Z,18.55
2022-11-28T17:06:28.566Z,18.54
2022-11-28T17:08:56.216Z,18.53
2022-11-28T17:11:26.183Z,18.53
2022-11-28T17:13:56.143Z,18.53
2022-11-28T17:16:25.047Z,18.53
2022-11-28T17:18:51.953Z,18.53
2022-11-28T17:21:28.058Z,18.47
2022-11-28T17:23:55.211Z,18.52
2022-11-28T17:26:21.753Z,18.53
2022-11-28T17:28:48.464Z,18.53
2022-11-28T17:31:15.385Z,18.41
2022-11-28T17:33:44.856Z,18.51
2022-11-28T17:36:12.699Z,18.51
2022-11-28T17:38:51.016Z,18.52
2022-11-28T17:41:18.368Z,18.49
2022-11-28T17:43:45.059Z,18.49
2022-11-28T17:46:11.807Z,18.48
2022-11-28T17:48:38.791Z,18.48
2022-11-28T17:51:06.083Z,18.48
2022-11-28T17:53:32.768Z,18.48
2022-11-28T17:56:00.634Z,18.48
2022-11-28T17:58:28.667Z,18.47
2022-11-28T18:01:00.547Z,18.46
2022-11-28T18:03:28.357Z,18.47
2022-11-28T18:05:55.555Z,18.46
2022-11-28T18:08:22.846Z,18.40
2022-11-28T18:10:51.751Z,18.45
2022-11-28T18:13:18.650Z,18.44
2022-11-28T18:15:48.033Z,18.44
2022-11-28T18:18:15.127Z,18.43
2022-11-28T18:20:42.262Z,18.43
2022-11-28T18:23:10.565Z,18.42
2022-11-28T18:25:41.405Z,18.43
2022-11-28T18:28:13.287Z,18.43
2022-11-28T18:30:45.375Z,18.41
2022-11-28T18:33:13.086Z,18.41
2022-11-28T18:35:40.259Z,18.41
2022-11-28T18:38:07.741Z,18.41
2022-11-28T18:40:35.985Z,18.40
2022-11-28T18:43:04.153Z,18.40
2022-11-28T18:45:31.489Z,18.40
2022-11-28T18:48:00.578Z,18.39
2022-11-28T18:50:30.303Z,18.38
2022-11-28T18:52:57.446Z,18.38
2022-11-28T18:55:25.072Z,18.39
2022-11-28T18:57:51.678Z,18.41
2022-11-28T19:00:21.507Z,18.41
2022-11-28T19:02:48.674Z,18.45
2022-11-28T19:05:15.515Z,18.48
2022-11-28T19:07:42.804Z,18.53
2022-11-28T19:10:10.119Z,18.53
2022-11-28T19:12:37.268Z,18.58
2022-11-28T19:15:04.201Z,18.58
2022-11-28T19:17:30.887Z,18.60
2022-11-28T19:19:57.666Z,18.62
2022-11-28T19:22:24.299Z,18.57
2022-11-28T19:24:51.291Z,18.64
2022-11-28T19:27:17.986Z,18.68
2022-11-28T19:29:45.017Z,18.69
2022-11-28T19:32:12.662Z,18.72
2022-11-28T19:34:39.489Z,18.71
2022-11-28T19:37:06.298Z,18.72
2022-11-28T19:39:33.032Z,18.73
2022-11-28T19:42:00.014Z,18.74
2022-11-28T19:44:29.296Z,18.75
2022-11-28T19:46:56.336Z,18.76
2022-11-28T19:49:24.257Z,18.77
2022-11-28T19:51:51.286Z,18.78
2022-11-28T19:54:23.190Z,18.79
2022-11-28T19:56:54.562Z,18.79
2022-11-28T19:59:21.531Z,18.80
2022-11-28T20:01:50.113Z,18.80
2022-11-28T20:04:17.078Z,18.82
2022-11-28T20:06:43.780Z,18.83
2022-11-28T20:09:11.530Z,18.84
2022-11-28T20:11:43.061Z,18.84
2022-11-28T20:14:15.538Z,18.85
2022-11-28T20:16:43.506Z,18.85
2022-11-28T20:19:12.141Z,18.85
2022-11-28T20:21:41.716Z,18.83
2022-11-28T20:24:13.013Z,18.85
2022-11-28T20:26:42.701Z,18.87
2022-11-28T20:29:16.937Z,18.88
2022-11-28T20:31:52.771Z,18.86
2022-11-28T20:34:20.193Z,18.87
2022-11-28T20:36:55.038Z,18.86
2022-11-28T20:39:24.141Z,18.86
2022-11-28T20:41:52.170Z,18.88
2022-11-28T20:44:24.679Z,18.91
2022-11-28T20:46:52.445Z,18.96
2022-11-28T20:49:19.598Z,18.93
2022-11-28T20:51:47.597Z,18.91
2022-11-28T20:54:15.844Z,18.92
2022-11-28T20:59:31.701Z,18.93
2022-11-28T21:01:59.396Z,18.97
2022-11-28T21:04:30.942Z,18.95
2022-11-28T21:06:58.150Z,18.94
2022-11-28T21:09:25.252Z,18.94
2022-11-28T21:11:57.883Z,18.94
2022-11-28T21:14:28.401Z,18.95
2022-11-28T21:16:56.705Z,18.97
2022-11-28T21:19:25.682Z,18.97
2022-11-28T21:21:54.179Z,18.99
2022-11-28T21:24:21.504Z,19.02
2022-11-28T21:26:53.450Z,19.02
2022-11-28T21:29:25.537Z,19.04
2022-11-28T21:31:56.258Z,19.08
2022-11-28T21:34:23.629Z,19.08
2022-11-28T21:36:52.066Z,19.10
2022-11-28T21:39:25.127Z,19.11
2022-11-28T21:41:52.551Z,19.12
2022-11-28T21:44:20.376Z,19.11
2022-11-28T21:46:50.141Z,19.14
2022-11-28T21:49:18.552Z,19.12
2022-11-28T21:51:45.634Z,19.16
2022-11-28T21:54:14.042Z,19.14
2022-11-28T21:56:44.781Z,19.18
2022-11-28T21:59:11.918Z,19.17
2022-11-28T22:01:41.432Z,19.20
2022-11-28T22:04:10.992Z,19.20
2022-11-28T22:06:43.601Z,19.18
2022-11-28T22:09:12.014Z,19.19
2022-11-28T22:11:39.672Z,19.18
2022-11-28T22:14:07.014Z,19.13
2022-11-28T22:16:34.015Z,19.12
2022-11-28T22:19:01.371Z,19.11
2022-11-28T22:24:18.554Z,19.06
2022-11-28T22:26:45.482Z,18.99
2022-11-28T22:29:12.908Z,18.96
2022-11-28T22:31:41.860Z,18.93
2022-11-28T22:34:10.548Z,18.94
2022-11-28T22:36:39.401Z,18.93
2022-11-28T22:39:06.474Z,18.93
2022-11-28T22:41:33.414Z,18.94
2022-11-28T22:44:01.751Z,18.93
2022-11-28T22:46:31.469Z,18.93
2022-11-28T22:49:00.728Z,18.90
2022-11-28T22:51:28.935Z,18.88
2022-11-28T22:53:57.211Z,18.88
2022-11-28T22:56:26.966Z,18.86
2022-11-28T22:58:53.747Z,18.85
2022-11-28T23:01:22.602Z,18.83
2022-11-28T23:03:50.019Z,18.84
2022-11-28T23:06:20.013Z,18.81
2022-11-28T23:08:51.659Z,18.81
2022-11-28T23:11:23.670Z,18.80
2022-11-28T23:13:50.769Z,18.77
2022-11-28T23:16:23.133Z,18.75
2022-11-28T23:18:51.937Z,18.74
2022-11-28T23:21:19.445Z,18.77
2022-11-28T23:23:46.507Z,18.81
2022-11-28T23:26:15.428Z,18.81
2022-11-28T23:28:42.457Z,18.76
2022-11-28T23:31:16.423Z,18.73
2022-11-28T23:33:43.862Z,18.72
2022-11-28T23:36:13.056Z,18.72
2022-11-28T23:38:39.713Z,18.70
2022-11-28T23:41:06.435Z,18.70
2022-11-28T23:43:32.971Z,18.69
2022-11-28T23:45:59.519Z,18.69
2022-11-28T23:48:26.128Z,18.69
2022-11-28T23:50:52.744Z,18.67
2022-11-28T23:53:19.343Z,18.68
2022-11-28T23:55:45.850Z,18.68
2022-11-28T23:58:12.368Z,18.70
